Two Rivers, WI

4:37 AM CST on February 25, 2017 (GMT -0600)
| | Change Station
Active Advisory: Winter Weather Advisory

Elev -9999 ft 0.00 °N, 0.00 °E | Updated 0 second ago

Snow
Snow
°F
Feels Like °F
N
Wind Variable Wind from North
Gusts mph

Today
High -- | Low -- °F
--% Chance of Precip.
Yesterday
High -- | Low -- °F
Precip. -- in
Pressure 29.64 in
Visibility 4.0 miles
Clouds Few 1600 ft
Mostly Cloudy 2800 ft
Overcast 3600 ft
Dew Point Not available.
Humidity Not available.
Rainfall --
Snow Depth Not available.
6:33 AM 5:33 PM
Waning Crescent, 2% visible
METAR KMTW 250956Z AUTO 30012KT 4SM -SN BR FEW016 BKN028 OVC036 M06/M07 A2958 RMK AO2 SLP036 P0000 T10611072 FZRANO
Pressure 29.64 in
Visibility 4.0 miles
Clouds Few 1600 ft
Mostly Cloudy 2800 ft
Overcast 3600 ft
Dew Point Not available.
Humidity Not available.
Rainfall --
Snow Depth Not available.
6:33 AM 5:33 PM
Waning Crescent, 2% visible
METAR KMTW 250956Z AUTO 30012KT 4SM -SN BR FEW016 BKN028 OVC036 M06/M07 A2958 RMK AO2 SLP036 P0000 T10611072 FZRANO

Get Your Daily Forecast Email!

Thanks for signing up!

Be on the lookout for a verification email in your inbox.

You'll start receiving the daily forecast at 8 AM.

×

10-Day Weather Forecast

Almanac

Astronomy

Feb. 25, 2017 Rise Set
Actual Time
Civil Twilight
Nautical Twilight
Astronomical Twilight
Moon
Length of Visible Light
Length of Day
Tomorrow will be .
, % of the Moon is Illuminated

Today's Extremes

State Highs State Lows

Community

WunderPhotos

Upload Photos

1,962,540 photos uploaded!

WunderBlog® & News

Nearby

Air Quality

  Air Quality AQ Index Pollutant
Not available.

Snow Depth

Station Depth Elevation

Earthquake Activity

City Distance Mag. Time & Date
Minimum magnitude displayed is 2.5.

Coastal Water Temperatures

Place Temperature

Stations

Nearby Weather Stations

Station Location Temp. Windchill Dew Point Humidity Wind Precip. Elev Updated Type
                   

Watches & Warnings

Winter Weather Advisory
Issued: 9:39 PM CST Feb. 24, 2017 – National Weather Service

... Winter Weather Advisory remains in effect until 6 am CST
Saturday...

* a wintry mix of freezing drizzle and snow will gradually
transition to all snow after midnight. The snow is expected to
linger through Saturday morning before diminishing.

* Additional snow accumulation of 1 to 2 inches is expected.
Minor icing is possible as well.

* Hazardous travel is expected through tonight. The combination
of snow and blustery north to northwest winds will create some
blowing and drifting of the snow.

Precautionary/preparedness actions...

Winter Weather Advisory means that periods of snow or freezing
drizzle will cause travel difficulties. Be prepared for slippery
roads and limited visibilities, and use caution while driving.
The latest Wisconsin Road conditions can be obtained by calling
511.



Kurimski